createdAt,value
2023-05-22T00:00:12.950Z,71.26
2023-05-22T00:01:12.932Z,71.16
2023-05-22T00:02:13.010Z,71.16
2023-05-22T00:03:12.980Z,71.67
2023-05-22T00:04:12.893Z,71.67
2023-05-22T00:05:12.937Z,72.00
2023-05-22T00:06:12.927Z,72.10
2023-05-22T00:07:12.890Z,71.90
2023-05-22T00:08:12.870Z,71.80
2023-05-22T00:09:12.822Z,71.80
2023-05-22T00:10:12.858Z,71.77
2023-05-22T00:11:12.859Z,72.00
2023-05-22T00:12:12.804Z,71.80
2023-05-22T00:13:12.782Z,72.00
2023-05-22T00:14:13.236Z,72.30
2023-05-22T00:15:12.781Z,72.61
2023-05-22T00:16:12.789Z,72.61
2023-05-22T00:17:12.845Z,72.71
2023-05-22T00:18:12.759Z,72.61
2023-05-22T00:19:12.841Z,73.00
2023-05-22T00:20:12.747Z,73.21
2023-05-22T00:21:12.741Z,73.24
2023-05-22T00:22:12.707Z,73.41
2023-05-22T00:23:14.647Z,73.44
2023-05-22T00:24:12.754Z,73.35
2023-05-22T00:25:12.671Z,73.65
2023-05-22T00:26:12.699Z,73.75
2023-05-22T00:27:12.713Z,73.65
2023-05-22T00:28:12.622Z,73.85
2023-05-22T00:29:12.737Z,73.75
2023-05-22T00:30:13.000Z,73.85
2023-05-22T00:31:12.779Z,73.85
2023-05-22T00:32:12.706Z,73.75
2023-05-22T00:33:13.025Z,73.95
2023-05-22T00:34:12.654Z,73.95
2023-05-22T00:35:12.584Z,74.05
2023-05-22T00:36:12.591Z,74.15
2023-05-22T00:37:12.585Z,74.35
2023-05-22T00:38:12.613Z,74.35
2023-05-22T00:39:12.613Z,74.25
2023-05-22T00:40:12.548Z,74.35
2023-05-22T00:41:12.496Z,74.35
2023-05-22T00:42:12.495Z,74.45
2023-05-22T00:43:12.509Z,74.45
2023-05-22T00:44:12.494Z,74.55
2023-05-22T00:45:12.503Z,74.75
2023-05-22T00:46:12.606Z,74.95
2023-05-22T00:47:12.733Z,74.95
2023-05-22T00:48:12.444Z,75.15
2023-05-22T00:49:18.399Z,75.15
2023-05-22T00:50:12.481Z,75.59
2023-05-22T00:51:12.454Z,75.70
2023-05-22T00:52:12.434Z,75.99
2023-05-22T00:53:12.397Z,75.99
2023-05-22T00:54:12.412Z,75.99
2023-05-22T00:55:12.369Z,76.10
2023-05-22T00:56:12.413Z,76.30
2023-05-22T00:57:12.409Z,76.50
2023-05-22T00:58:12.336Z,76.30
2023-05-22T00:59:12.357Z,76.40
2023-05-22T01:00:12.350Z,76.60
2023-05-22T01:01:12.307Z,76.74
2023-05-22T01:02:12.341Z,76.94
2023-05-22T01:03:12.427Z,77.04
2023-05-22T01:04:12.341Z,77.24
2023-05-22T01:05:12.238Z,77.34
2023-05-22T01:06:12.251Z,77.55
2023-05-22T01:07:12.238Z,77.34
2023-05-22T01:08:12.228Z,77.24
2023-05-22T01:09:12.205Z,77.24
2023-05-22T01:10:12.200Z,77.24
2023-05-22T01:11:12.262Z,77.14
2023-05-22T01:12:12.202Z,77.34
2023-05-22T01:13:12.208Z,77.55
2023-05-22T01:14:12.196Z,77.34
2023-05-22T01:15:12.156Z,77.55
2023-05-22T01:16:12.159Z,77.64
2023-05-22T01:17:12.184Z,77.75
2023-05-22T01:18:12.144Z,77.78
2023-05-22T01:19:12.152Z,77.68
2023-05-22T01:20:12.108Z,77.68
2023-05-22T01:21:12.072Z,77.68
2023-05-22T01:22:12.071Z,77.88
2023-05-22T01:23:12.099Z,77.98
2023-05-22T01:24:12.100Z,77.98
2023-05-22T01:25:12.063Z,77.98
2023-05-22T01:26:12.014Z,78.39
2023-05-22T01:27:12.014Z,78.39
2023-05-22T01:28:12.005Z,78.49
2023-05-22T01:29:12.045Z,78.39
2023-05-22T01:30:12.069Z,78.39
2023-05-22T01:31:11.993Z,78.39
2023-05-22T01:32:11.952Z,78.39
2023-05-22T01:33:12.026Z,78.39
2023-05-22T01:34:11.961Z,78.49
2023-05-22T01:35:11.935Z,78.39
2023-05-22T01:36:11.949Z,78.83
2023-05-22T01:37:11.921Z,78.72
2023-05-22T01:38:11.917Z,79.03
2023-05-22T01:39:11.897Z,79.03
2023-05-22T01:40:11.882Z,79.03
2023-05-22T01:41:11.858Z,79.23
2023-05-22T01:42:11.876Z,79.43
2023-05-22T01:43:11.881Z,79.43
2023-05-22T01:44:11.852Z,79.77
2023-05-22T01:45:11.871Z,79.87
2023-05-22T01:46:11.875Z,80.07
2023-05-22T01:47:11.839Z,80.27
2023-05-22T01:48:11.826Z,80.27
2023-05-22T01:49:11.807Z,80.38
2023-05-22T01:50:11.796Z,80.38
2023-05-22T01:51:11.783Z,80.38
2023-05-22T01:52:11.752Z,80.27
2023-05-22T01:53:11.774Z,80.38
2023-05-22T01:54:11.747Z,80.27
2023-05-22T01:55:11.745Z,80.38
2023-05-22T01:56:11.756Z,80.38
2023-05-22T01:57:11.748Z,80.27
2023-05-22T01:58:11.713Z,80.27
2023-05-22T01:59:11.696Z,80.27
2023-05-22T02:00:11.708Z,80.18
2023-05-22T02:01:11.753Z,80.27
2023-05-22T02:02:11.712Z,80.07
2023-05-22T02:03:11.873Z,80.47
2023-05-22T02:04:11.623Z,80.47
2023-05-22T02:05:11.653Z,80.47
2023-05-22T02:06:11.620Z,80.68
2023-05-22T02:07:12.249Z,80.92
2023-05-22T02:08:11.596Z,81.02
2023-05-22T02:09:11.598Z,81.12
2023-05-22T02:10:11.575Z,81.02
2023-05-22T02:11:11.563Z,81.12
2023-05-22T02:12:11.566Z,81.42
2023-05-22T02:13:11.578Z,81.52
2023-05-22T02:14:11.551Z,81.62
2023-05-22T02:15:11.517Z,81.73
2023-05-22T02:16:11.637Z,81.73
2023-05-22T02:17:11.540Z,81.82
2023-05-22T02:18:11.578Z,82.03
2023-05-22T02:19:11.554Z,82.23
2023-05-22T02:20:11.510Z,82.27
2023-05-22T02:21:11.467Z,82.13
2023-05-22T02:22:11.477Z,82.33
2023-05-22T02:23:11.436Z,82.33
2023-05-22T02:24:11.444Z,82.27
2023-05-22T02:25:11.439Z,82.37
2023-05-22T02:26:11.396Z,82.37
2023-05-22T02:27:11.404Z,82.37
2023-05-22T02:28:11.397Z,82.47
2023-05-22T02:29:11.403Z,82.47
2023-05-22T02:30:11.406Z,82.78
2023-05-22T02:31:11.441Z,82.87
2023-05-22T02:32:11.382Z,82.87
2023-05-22T02:33:11.409Z,82.87
2023-05-22T02:34:11.348Z,83.07
2023-05-22T02:35:11.336Z,82.98
2023-05-22T02:36:11.320Z,83.22
2023-05-22T02:37:11.323Z,83.28
2023-05-22T02:38:11.325Z,83.28
2023-05-22T02:39:11.303Z,83.52
2023-05-22T02:40:11.256Z,83.42
2023-05-22T02:41:11.264Z,83.32
2023-05-22T02:42:11.268Z,83.52
2023-05-22T02:43:11.255Z,83.52
2023-05-22T02:44:11.254Z,83.52
2023-05-22T02:45:11.223Z,83.62
2023-05-22T02:46:11.206Z,83.62
2023-05-22T02:47:11.193Z,83.62
2023-05-22T02:48:11.284Z,83.62
2023-05-22T02:49:11.200Z,83.62
2023-05-22T02:50:11.176Z,83.62
2023-05-22T02:51:11.220Z,83.52
2023-05-22T02:52:11.132Z,83.52
2023-05-22T02:53:11.146Z,83.32
2023-05-22T02:54:11.143Z,83.22
2023-05-22T02:55:11.128Z,83.12
2023-05-22T02:56:11.126Z,83.12
2023-05-22T02:57:11.102Z,83.01
2023-05-22T02:58:11.089Z,82.91
2023-05-22T02:59:11.099Z,82.81
2023-05-22T03:00:11.061Z,82.91
2023-05-22T03:01:11.143Z,82.91
2023-05-22T03:02:11.083Z,82.81
2023-05-22T03:03:11.195Z,82.81
2023-05-22T03:04:11.164Z,82.71
2023-05-22T03:05:11.027Z,83.01
2023-05-22T03:06:11.016Z,83.01
2023-05-22T03:07:10.989Z,83.26
2023-05-22T03:08:11.013Z,83.46
2023-05-22T03:09:10.968Z,83.46
2023-05-22T03:10:10.972Z,83.56
2023-05-22T03:11:10.964Z,83.46
2023-05-22T03:12:10.985Z,83.42
2023-05-22T03:13:10.956Z,83.36
2023-05-22T03:14:10.905Z,83.46
2023-05-22T03:15:10.905Z,83.46
2023-05-22T03:16:11.188Z,83.56
2023-05-22T03:17:10.899Z,83.66
2023-05-22T03:18:10.904Z,83.66
2023-05-22T03:19:10.878Z,83.66
2023-05-22T03:20:10.898Z,83.76
2023-05-22T03:21:10.871Z,84.06
2023-05-22T03:22:10.849Z,84.06
2023-05-22T03:23:10.843Z,84.27
2023-05-22T03:24:10.864Z,84.37
2023-05-22T03:25:10.853Z,84.61
2023-05-22T03:26:10.808Z,84.61
2023-05-22T03:27:10.779Z,84.81
2023-05-22T03:28:10.777Z,85.02
2023-05-22T03:29:10.901Z,85.42
2023-05-22T03:30:10.759Z,85.66
2023-05-22T03:31:10.757Z,85.86
2023-05-22T03:32:10.765Z,86.07
2023-05-22T03:33:10.820Z,86.16
2023-05-22T03:34:10.736Z,86.37
2023-05-22T03:35:10.720Z,86.57
2023-05-22T03:36:10.716Z,86.61
2023-05-22T03:37:10.693Z,86.77
2023-05-22T03:38:10.703Z,86.71
2023-05-22T03:39:10.659Z,86.82
2023-05-22T03:40:10.705Z,86.91
2023-05-22T03:41:10.641Z,87.12
2023-05-22T03:42:10.629Z,87.12
2023-05-22T03:43:10.654Z,87.02
2023-05-22T03:44:10.636Z,87.02
2023-05-22T03:45:10.696Z,86.82
2023-05-22T03:46:10.626Z,86.77
2023-05-22T03:47:10.618Z,86.57
2023-05-22T03:48:11.318Z,86.47
2023-05-22T03:49:10.593Z,86.37
2023-05-22T03:50:10.597Z,86.27
2023-05-22T03:51:10.588Z,86.07
2023-05-22T03:52:10.537Z,85.96
2023-05-22T03:53:10.551Z,85.76
2023-05-22T03:54:10.506Z,85.56
2023-05-22T03:55:10.524Z,85.46
2023-05-22T03:56:10.478Z,85.36
2023-05-22T03:57:10.490Z,84.95
2023-05-22T03:58:10.468Z,84.71
2023-05-22T03:59:10.485Z,84.51
2023-05-22T04:00:10.446Z,84.20
2023-05-22T04:01:10.492Z,83.70
2023-05-22T04:02:10.438Z,83.29
2023-05-22T04:03:10.517Z,83.09
2023-05-22T04:04:10.401Z,82.95
2023-05-22T04:05:10.453Z,82.75
2023-05-22T04:06:10.405Z,82.65
2023-05-22T04:07:10.379Z,82.55
2023-05-22T04:08:10.372Z,82.35
2023-05-22T04:09:10.350Z,82.35
2023-05-22T04:10:10.353Z,82.14
2023-05-22T04:11:10.333Z,81.70
2023-05-22T04:12:10.343Z,81.60
2023-05-22T04:13:10.313Z,81.30
2023-05-22T04:14:10.339Z,81.20
2023-05-22T04:15:10.288Z,80.99
2023-05-22T04:16:10.323Z,80.99
2023-05-22T04:17:10.275Z,80.90
2023-05-22T04:18:10.362Z,80.79
2023-05-22T04:19:10.338Z,80.79
2023-05-22T04:20:10.275Z,80.59
2023-05-22T04:21:10.238Z,80.49
2023-05-22T04:22:10.455Z,80.39
2023-05-22T04:23:10.204Z,80.96
2023-05-22T04:24:10.211Z,80.79
2023-05-22T04:25:10.207Z,80.90
2023-05-22T04:26:10.180Z,80.85
2023-05-22T04:27:10.201Z,80.79
2023-05-22T04:28:10.158Z,80.76
2023-05-22T04:29:10.186Z,80.96
2023-05-22T04:30:10.156Z,80.76
2023-05-22T04:31:10.215Z,80.96
2023-05-22T04:32:10.118Z,80.76
2023-05-22T04:33:10.163Z,80.45
2023-05-22T04:34:10.125Z,80.55
2023-05-22T04:35:10.209Z,80.35
2023-05-22T04:36:12.313Z,80.45
2023-05-22T04:37:10.090Z,80.55
2023-05-22T04:38:10.105Z,80.65
2023-05-22T04:39:10.038Z,80.55
2023-05-22T04:40:10.061Z,80.65
2023-05-22T04:41:10.027Z,80.65
2023-05-22T04:42:10.038Z,80.65
2023-05-22T04:43:10.033Z,80.96
2023-05-22T04:44:09.984Z,81.36
2023-05-22T04:45:10.037Z,81.16
2023-05-22T04:46:10.003Z,81.05
2023-05-22T04:47:10.081Z,80.85
2023-05-22T04:48:09.970Z,80.76
2023-05-22T04:49:09.966Z,80.35
2023-05-22T04:50:09.951Z,80.35
2023-05-22T04:51:09.929Z,80.25
2023-05-22T04:52:09.919Z,80.15
2023-05-22T04:53:09.929Z,80.25
2023-05-22T04:54:09.929Z,80.15
2023-05-22T04:55:09.908Z,79.85
2023-05-22T04:56:09.866Z,79.94
2023-05-22T04:57:09.870Z,80.25
2023-05-22T04:58:09.876Z,80.55
2023-05-22T04:59:09.898Z,80.76
2023-05-22T05:00:09.845Z,80.76
2023-05-22T05:01:09.889Z,80.65
2023-05-22T05:02:09.800Z,80.35
2023-05-22T05:03:09.872Z,80.25
2023-05-22T05:04:09.820Z,80.35
2023-05-22T05:05:09.823Z,80.45
2023-05-22T05:06:09.768Z,80.35
2023-05-22T05:07:09.880Z,80.45
2023-05-22T05:08:09.762Z,80.45
2023-05-22T05:09:09.749Z,80.51
2023-05-22T05:10:09.741Z,80.62
2023-05-22T05:11:09.749Z,80.41
2023-05-22T05:12:09.757Z,80.21
2023-05-22T05:13:09.715Z,80.01
2023-05-22T05:14:09.716Z,80.21
2023-05-22T05:15:09.676Z,79.91
2023-05-22T05:16:09.713Z,79.71
2023-05-22T05:17:09.664Z,79.71
2023-05-22T05:18:09.751Z,79.71
2023-05-22T05:19:09.684Z,79.81
2023-05-22T05:20:09.667Z,79.36
2023-05-22T05:21:09.710Z,79.41
2023-05-22T05:22:09.628Z,79.41
2023-05-22T05:23:09.585Z,79.27
2023-05-22T05:24:09.607Z,79.27
2023-05-22T05:25:11.425Z,79.27
2023-05-22T05:26:09.549Z,79.36
2023-05-22T05:27:09.632Z,79.27
2023-05-22T05:28:09.545Z,79.06
2023-05-22T05:29:09.576Z,78.96
2023-05-22T05:30:09.550Z,78.76
2023-05-22T05:31:09.537Z,78.66
2023-05-22T05:32:09.524Z,78.52
2023-05-22T05:33:09.508Z,78.42
2023-05-22T05:34:09.557Z,78.32
2023-05-22T05:35:09.487Z,78.32
2023-05-22T05:36:09.453Z,78.12
2023-05-22T05:37:09.503Z,78.12
2023-05-22T05:38:09.441Z,77.98
2023-05-22T05:39:09.432Z,77.78
2023-05-22T05:40:09.556Z,77.68
2023-05-22T05:41:09.428Z,77.68
2023-05-22T05:42:09.402Z,77.48
2023-05-22T05:43:09.602Z,77.28
2023-05-22T05:44:09.422Z,77.38
2023-05-22T05:45:09.409Z,77.38
2023-05-22T05:46:09.444Z,77.04
2023-05-22T05:47:09.390Z,76.94
2023-05-22T05:48:09.374Z,76.84
2023-05-22T05:49:09.360Z,76.74
2023-05-22T05:50:09.332Z,76.54
2023-05-22T05:51:09.352Z,76.34
2023-05-22T05:52:09.326Z,76.10
2023-05-22T05:53:09.318Z,76.14
2023-05-22T05:54:09.416Z,75.90
2023-05-22T05:55:09.333Z,75.79
2023-05-22T05:56:09.256Z,75.70
2023-05-22T05:57:09.334Z,75.79
2023-05-22T05:58:09.249Z,75.79
2023-05-22T05:59:09.223Z,75.90
2023-05-22T06:00:09.225Z,76.10
2023-05-22T06:01:09.215Z,76.06
2023-05-22T06:02:09.243Z,76.06
2023-05-22T06:03:09.303Z,76.06
2023-05-22T06:04:09.226Z,76.06
2023-05-22T06:05:09.324Z,75.86
2023-05-22T06:06:09.167Z,76.16
2023-05-22T06:07:09.125Z,76.16
2023-05-22T06:08:09.145Z,76.06
2023-05-22T06:09:09.128Z,76.46
2023-05-22T06:10:09.133Z,76.56
2023-05-22T06:11:09.134Z,76.76
2023-05-22T06:12:09.089Z,76.56
2023-05-22T06:13:09.104Z,76.67
2023-05-22T06:14:09.083Z,76.46
2023-05-22T06:15:09.053Z,76.56
2023-05-22T06:16:09.076Z,76.46
2023-05-22T06:17:09.057Z,76.46
2023-05-22T06:18:09.123Z,76.46
2023-05-22T06:19:09.075Z,76.36
2023-05-22T06:20:09.044Z,76.36
2023-05-22T06:21:09.056Z,76.46
2023-05-22T06:22:09.036Z,76.16
2023-05-22T06:23:08.973Z,76.46
2023-05-22T06:24:08.991Z,76.56
2023-05-22T06:25:08.978Z,76.36
2023-05-22T06:26:09.001Z,76.03
2023-05-22T06:27:08.929Z,76.03
2023-05-22T06:28:08.948Z,75.92
2023-05-22T06:29:10.143Z,76.23
2023-05-22T06:30:08.900Z,76.43
2023-05-22T06:31:08.898Z,76.23
2023-05-22T06:32:08.994Z,76.32
2023-05-22T06:33:09.037Z,76.32
2023-05-22T06:34:09.062Z,75.99
2023-05-22T06:35:08.849Z,75.68
2023-05-22T06:36:08.968Z,75.68
2023-05-22T06:37:08.838Z,75.92
2023-05-22T06:38:08.801Z,75.92
2023-05-22T06:39:08.848Z,75.92
2023-05-22T06:40:08.816Z,75.99
2023-05-22T06:41:08.786Z,75.68
2023-05-22T06:42:08.786Z,75.29
2023-05-22T06:43:08.746Z,75.09
2023-05-22T06:44:08.783Z,75.09
2023-05-22T06:45:08.768Z,74.85
2023-05-22T06:46:08.832Z,74.85
2023-05-22T06:47:08.973Z,74.55
2023-05-22T06:48:08.757Z,74.15
2023-05-22T06:49:08.748Z,74.04
2023-05-22T06:50:08.682Z,73.91
2023-05-22T06:51:08.678Z,73.61
2023-05-22T06:52:08.695Z,73.41
2023-05-22T06:53:08.667Z,73.41
2023-05-22T06:54:08.655Z,73.27
2023-05-22T06:55:08.638Z,72.97
2023-05-22T06:56:08.703Z,73.07
2023-05-22T06:57:08.607Z,73.07
2023-05-22T06:58:08.666Z,72.97
2023-05-22T06:59:08.622Z,73.07
2023-05-22T07:00:08.620Z,72.77
2023-05-22T07:01:08.695Z,72.63
2023-05-22T07:02:08.568Z,72.53
2023-05-22T07:03:08.579Z,73.03
2023-05-22T07:04:08.575Z,72.43
2023-05-22T07:05:08.529Z,71.83
2023-05-22T07:06:08.546Z,71.93
2023-05-22T07:07:08.512Z,71.70
2023-05-22T07:08:08.503Z,71.39
2023-05-22T07:09:08.491Z,71.09
2023-05-22T07:10:08.527Z,70.76
2023-05-22T07:11:08.492Z,71.16
2023-05-22T07:12:08.454Z,70.96
2023-05-22T07:13:08.557Z,70.32
2023-05-22T07:14:08.429Z,69.93
2023-05-22T07:15:08.457Z,69.62
2023-05-22T07:16:08.473Z,69.32
2023-05-22T07:17:08.437Z,69.53
2023-05-22T07:18:08.430Z,69.02
2023-05-22T07:19:08.449Z,69.53
2023-05-22T07:20:08.391Z,69.12
2023-05-22T07:21:08.377Z,69.12
2023-05-22T07:22:08.383Z,69.53
2023-05-22T07:23:08.350Z,69.53
2023-05-22T07:24:08.361Z,69.73
2023-05-22T07:25:08.320Z,69.89
2023-05-22T07:26:08.308Z,69.39
2023-05-22T07:27:08.487Z,69.19
2023-05-22T07:28:08.312Z,68.79
2023-05-22T07:29:08.329Z,69.19
2023-05-22T07:30:08.264Z,69.09
2023-05-22T07:31:08.317Z,68.79
2023-05-22T07:32:08.254Z,69.09
2023-05-22T07:33:08.270Z,69.09
2023-05-22T07:34:08.237Z,69.26
2023-05-22T07:35:08.295Z,68.96
2023-05-22T07:36:08.226Z,68.62
2023-05-22T07:37:08.188Z,68.52
2023-05-22T07:38:08.251Z,68.32
2023-05-22T07:39:08.183Z,68.43
2023-05-22T07:40:08.184Z,68.32
2023-05-22T07:41:08.180Z,68.52
2023-05-22T07:42:08.152Z,68.43
2023-05-22T07:43:08.173Z,68.62
2023-05-22T07:44:08.130Z,68.96
2023-05-22T07:45:08.122Z,69.06
2023-05-22T07:46:08.222Z,68.86
2023-05-22T07:47:08.100Z,69.09
2023-05-22T07:48:08.123Z,69.39
2023-05-22T07:49:08.090Z,68.96
2023-05-22T07:50:08.071Z,68.82
2023-05-22T07:51:08.064Z,69.16
2023-05-22T07:52:08.060Z,69.56
2023-05-22T07:53:08.072Z,69.23
2023-05-22T07:54:08.041Z,68.52
2023-05-22T07:55:08.008Z,67.69
2023-05-22T07:56:08.020Z,67.36
2023-05-22T07:57:08.087Z,66.89
2023-05-22T07:58:08.013Z,66.86
2023-05-22T07:59:07.987Z,66.76
2023-05-22T08:00:07.965Z,66.26
2023-05-22T08:01:09.414Z,65.93
2023-05-22T08:02:07.978Z,65.86
2023-05-22T08:03:08.189Z,65.83
2023-05-22T08:04:08.225Z,65.63
2023-05-22T08:05:07.937Z,65.73
2023-05-22T08:06:07.937Z,65.13
2023-05-22T08:07:08.128Z,64.10
2023-05-22T08:08:07.878Z,63.33
2023-05-22T08:09:07.914Z,63.33
2023-05-22T08:10:07.896Z,63.23
2023-05-22T08:11:07.975Z,63.10
2023-05-22T08:12:08.014Z,61.41
2023-05-22T08:13:07.859Z,61.60
2023-05-22T08:14:07.875Z,62.27
2023-05-22T08:15:07.790Z,62.81
2023-05-22T08:16:07.829Z,63.93
2023-05-22T08:17:07.953Z,65.03
2023-05-22T08:18:07.818Z,64.63
2023-05-22T08:19:08.431Z,63.90
2023-05-22T08:20:07.930Z,63.10
2023-05-22T08:21:07.796Z,62.30
2023-05-22T08:22:07.749Z,62.07
2023-05-22T08:23:07.766Z,61.57
2023-05-22T08:24:07.744Z,61.85
2023-05-22T08:25:07.735Z,61.82
2023-05-22T08:26:07.687Z,62.01
2023-05-22T08:27:07.716Z,62.01
2023-05-22T08:28:07.697Z,62.59
2023-05-22T08:29:07.691Z,61.79
2023-05-22T08:30:07.690Z,61.99
2023-05-22T08:31:07.779Z,61.39
2023-05-22T08:32:07.737Z,62.41
2023-05-22T08:33:07.921Z,62.68
2023-05-22T08:34:07.702Z,62.88
2023-05-22T08:35:07.615Z,62.95
2023-05-22T08:36:07.610Z,61.99
2023-05-22T08:37:07.596Z,62.01
2023-05-22T08:38:07.611Z,62.31
2023-05-22T08:39:07.574Z,61.99
2023-05-22T08:40:07.600Z,61.39
2023-05-22T08:41:07.629Z,60.96
2023-05-22T08:42:07.556Z,60.46
2023-05-22T08:43:08.240Z,60.46
2023-05-22T08:44:07.536Z,60.26
2023-05-22T08:45:07.525Z,60.49
2023-05-22T08:46:07.510Z,60.82
2023-05-22T08:47:07.606Z,61.29
2023-05-22T08:48:07.567Z,61.39
2023-05-22T08:49:07.504Z,60.56
2023-05-22T08:50:07.495Z,59.66
2023-05-22T08:51:07.455Z,59.66
2023-05-22T08:52:07.463Z,59.66
2023-05-22T08:53:07.432Z,59.64
2023-05-22T08:54:07.464Z,59.64
2023-05-22T08:55:07.427Z,59.11
2023-05-22T08:56:07.427Z,58.44
2023-05-22T08:57:07.401Z,58.94
2023-05-22T08:58:07.368Z,59.11
2023-05-22T08:59:07.376Z,58.78
2023-05-22T09:00:07.370Z,57.69
2023-05-22T09:01:07.405Z,57.56
2023-05-22T09:02:07.342Z,56.37
2023-05-22T09:03:07.416Z,56.27
2023-05-22T09:04:08.099Z,56.07
2023-05-22T09:05:07.307Z,55.94
2023-05-22T09:06:07.316Z,55.35
2023-05-22T09:07:07.286Z,56.47
2023-05-22T09:08:19.067Z,56.47
2023-05-22T09:09:07.274Z,56.47
2023-05-22T09:10:07.294Z,57.26
2023-05-22T09:11:07.269Z,57.42
2023-05-22T09:12:07.256Z,58.51
2023-05-22T09:13:07.222Z,58.22
2023-05-22T09:14:07.213Z,57.92
2023-05-22T09:15:07.196Z,57.29
2023-05-22T09:16:07.350Z,56.14
2023-05-22T09:17:07.337Z,54.85
2023-05-22T09:18:07.276Z,55.15
2023-05-22T09:19:07.215Z,55.02
2023-05-22T09:20:07.161Z,54.43
2023-05-22T09:21:14.782Z,54.10
2023-05-22T09:22:07.185Z,54.00
2023-05-22T09:23:07.119Z,53.48
2023-05-22T09:24:07.127Z,53.11
2023-05-22T09:25:07.132Z,53.44
2023-05-22T09:26:07.096Z,53.76
2023-05-22T09:27:07.076Z,53.44
2023-05-22T09:28:07.104Z,53.53
2023-05-22T09:29:07.069Z,53.53
2023-05-22T09:30:07.082Z,53.83
2023-05-22T09:31:07.065Z,53.41
2023-05-22T09:32:07.246Z,53.63
2023-05-22T09:33:07.081Z,54.97
2023-05-22T09:34:07.024Z,56.20
2023-05-22T09:35:07.074Z,56.00
2023-05-22T09:36:07.002Z,56.47
2023-05-22T09:37:06.983Z,55.15
2023-05-22T09:38:06.987Z,54.75
2023-05-22T09:39:07.013Z,54.75
2023-05-22T09:40:06.957Z,54.43
2023-05-22T09:41:06.937Z,54.72
2023-05-22T09:42:06.968Z,54.03
2023-05-22T09:43:06.919Z,54.33
2023-05-22T09:44:06.941Z,54.82
2023-05-22T09:45:06.888Z,54.63
2023-05-22T09:46:06.975Z,54.23
2023-05-22T09:47:06.906Z,54.13
2023-05-22T09:48:07.157Z,54.88
2023-05-22T09:49:06.853Z,55.47
2023-05-22T09:50:06.893Z,55.57
2023-05-22T09:51:06.836Z,55.67
2023-05-22T09:52:06.888Z,55.55
2023-05-22T09:53:06.817Z,55.15
2023-05-22T09:54:06.858Z,56.40
2023-05-22T09:55:06.815Z,56.62
2023-05-22T09:56:06.790Z,56.62
2023-05-22T09:57:06.867Z,57.12
2023-05-22T09:58:06.786Z,57.32
2023-05-22T09:59:06.772Z,57.45
2023-05-22T10:00:06.788Z,57.84
2023-05-22T10:01:06.740Z,57.32
2023-05-22T10:02:06.837Z,56.49
2023-05-22T10:03:06.792Z,55.60
2023-05-22T10:04:06.752Z,56.20
2023-05-22T10:05:06.706Z,55.57
2023-05-22T10:06:06.746Z,55.87
2023-05-22T10:07:07.443Z,55.97
2023-05-22T10:08:06.665Z,55.25
2023-05-22T10:09:07.420Z,55.55
2023-05-22T10:10:06.695Z,55.97
2023-05-22T10:11:06.712Z,55.57
2023-05-22T10:12:06.646Z,55.94
2023-05-22T10:13:06.684Z,56.04
2023-05-22T10:14:06.623Z,55.55
2023-05-22T10:15:06.625Z,56.12
2023-05-22T10:16:06.654Z,55.22
2023-05-22T10:17:06.651Z,56.02
2023-05-22T10:18:06.619Z,56.41
2023-05-22T10:19:06.577Z,56.51
2023-05-22T10:20:06.554Z,56.94
2023-05-22T10:21:06.542Z,56.71
2023-05-22T10:22:08.194Z,56.94
2023-05-22T10:23:06.549Z,56.84
2023-05-22T10:24:06.507Z,56.64
2023-05-22T10:25:08.541Z,55.65
2023-05-22T10:26:06.501Z,56.04
2023-05-22T10:27:06.468Z,55.85
2023-05-22T10:28:06.497Z,55.57
2023-05-22T10:29:06.505Z,55.38
2023-05-22T10:30:06.467Z,54.97
2023-05-22T10:31:06.432Z,55.50
2023-05-22T10:32:06.418Z,54.68
2023-05-22T10:33:06.535Z,54.58
2023-05-22T10:34:06.517Z,54.97
2023-05-22T10:35:06.417Z,55.05
2023-05-22T10:36:06.459Z,53.61
2023-05-22T10:37:16.544Z,52.69
2023-05-22T10:38:06.621Z,51.37
2023-05-22T10:39:06.391Z,51.67
2023-05-22T10:40:06.371Z,51.54
2023-05-22T10:41:06.401Z,52.34
2023-05-22T10:42:06.343Z,52.12
2023-05-22T10:43:06.359Z,52.51
2023-05-22T10:44:06.309Z,51.32
2023-05-22T10:45:06.355Z,50.63
2023-05-22T10:46:06.528Z,50.13
2023-05-22T10:47:06.296Z,49.54
2023-05-22T10:48:06.396Z,50.13
2023-05-22T10:49:06.296Z,49.42
2023-05-22T10:50:06.279Z,49.62
2023-05-22T10:51:06.941Z,48.65
2023-05-22T10:52:06.250Z,49.76
2023-05-22T10:53:06.281Z,50.06
2023-05-22T10:54:06.230Z,50.46
2023-05-22T10:55:06.196Z,49.71
2023-05-22T10:56:06.208Z,49.32
2023-05-22T10:57:06.292Z,50.16
2023-05-22T10:58:06.159Z,50.34
2023-05-22T10:59:06.208Z,50.11
2023-05-22T11:00:06.191Z,49.81
2023-05-22T11:01:06.143Z,49.02
2023-05-22T11:02:06.190Z,49.49
2023-05-22T11:03:17.060Z,48.68
2023-05-22T11:04:06.148Z,48.46
2023-05-22T11:05:06.112Z,48.97
2023-05-22T11:06:06.180Z,49.99
2023-05-22T11:07:06.081Z,50.13
2023-05-22T11:08:06.080Z,50.11
2023-05-22T11:09:06.063Z,49.00
2023-05-22T11:10:06.058Z,48.68
2023-05-22T11:11:06.061Z,48.26
2023-05-22T11:12:06.063Z,48.16
2023-05-22T11:13:06.058Z,47.44
2023-05-22T11:14:06.040Z,48.02
2023-05-22T11:15:06.064Z,47.40
2023-05-22T11:16:05.983Z,47.50
2023-05-22T11:17:06.092Z,47.38
2023-05-22T11:18:06.016Z,47.67
2023-05-22T11:20:06.541Z,47.06
2023-05-22T11:21:06.013Z,46.34
2023-05-22T11:22:05.925Z,45.95
2023-05-22T11:23:05.932Z,46.74
2023-05-22T11:24:05.946Z,46.39
2023-05-22T11:25:05.940Z,47.18
2023-05-22T11:26:05.908Z,47.64
2023-05-22T11:27:05.955Z,48.36
2023-05-22T11:28:05.855Z,49.15
2023-05-22T11:29:05.869Z,48.95
2023-05-22T11:30:05.885Z,47.94
2023-05-22T11:31:05.897Z,47.52
2023-05-22T11:32:05.903Z,47.64
2023-05-22T11:33:05.844Z,47.72
2023-05-22T11:34:05.992Z,47.32
2023-05-22T11:35:05.839Z,47.62
2023-05-22T11:36:05.801Z,48.26
2023-05-22T11:37:05.802Z,48.26
2023-05-22T11:38:05.788Z,47.84
2023-05-22T11:39:07.456Z,47.25
2023-05-22T11:40:05.807Z,48.97
2023-05-22T11:41:05.769Z,48.38
2023-05-22T11:42:05.755Z,48.40
2023-05-22T11:43:05.772Z,48.18
2023-05-22T11:44:05.750Z,48.26
2023-05-22T11:45:05.735Z,49.62
2023-05-22T11:46:05.742Z,48.14
2023-05-22T11:47:05.821Z,47.52
2023-05-22T11:48:05.704Z,46.63
2023-05-22T11:49:05.698Z,46.73
2023-05-22T11:50:05.673Z,46.73
2023-05-22T11:51:05.667Z,46.81
2023-05-22T11:52:05.668Z,46.70
2023-05-22T11:53:05.755Z,46.78
2023-05-22T11:54:05.627Z,47.08
2023-05-22T11:55:05.763Z,46.09
2023-05-22T11:56:05.662Z,46.41
2023-05-22T11:57:05.624Z,46.51
2023-05-22T11:58:05.567Z,46.59
2023-05-22T11:59:05.566Z,46.29
2023-05-22T12:00:05.576Z,46.48
2023-05-22T12:01:05.547Z,46.76
2023-05-22T12:02:05.519Z,45.85
2023-05-22T12:03:05.887Z,46.42
2023-05-22T12:04:05.590Z,44.92
2023-05-22T12:05:05.547Z,44.82
2023-05-22T12:06:05.528Z,44.51
2023-05-22T12:07:05.487Z,45.67
2023-05-22T12:08:05.461Z,43.60
2023-05-22T12:09:05.932Z,43.79
2023-05-22T12:10:05.471Z,43.89
2023-05-22T12:11:05.462Z,43.91
2023-05-22T12:12:05.431Z,43.93
2023-05-22T12:13:05.490Z,44.13
2023-05-22T12:14:05.417Z,44.01
2023-05-22T12:15:05.469Z,43.93
2023-05-22T12:16:05.590Z,44.15
2023-05-22T12:17:07.028Z,45.06
2023-05-22T12:18:05.506Z,45.65
2023-05-22T12:19:05.449Z,45.26
2023-05-22T12:20:05.390Z,44.84
2023-05-22T12:21:05.429Z,44.92
2023-05-22T12:22:05.340Z,44.90
2023-05-22T12:23:05.335Z,44.72
2023-05-22T12:24:05.361Z,44.35
2023-05-22T12:25:05.305Z,45.85
2023-05-22T12:26:05.310Z,45.43
2023-05-22T12:27:05.326Z,44.33
2023-05-22T12:28:05.304Z,43.93
2023-05-22T12:29:05.307Z,43.82
2023-05-22T12:30:05.307Z,43.71
2023-05-22T12:31:05.331Z,43.23
2023-05-22T12:32:05.734Z,43.13
2023-05-22T12:33:05.303Z,43.52
2023-05-22T12:34:05.252Z,44.11
2023-05-22T12:35:05.366Z,45.56
2023-05-22T12:36:05.216Z,44.11
2023-05-22T12:37:05.217Z,44.55
2023-05-22T12:38:05.182Z,45.53
2023-05-22T12:39:05.262Z,44.23
2023-05-22T12:40:05.461Z,44.01
2023-05-22T12:41:05.161Z,43.32
2023-05-22T12:42:05.207Z,43.52
2023-05-22T12:43:05.197Z,43.01
2023-05-22T12:44:05.176Z,42.71
2023-05-22T12:45:05.122Z,43.20
2023-05-22T12:46:05.945Z,42.81
2023-05-22T12:47:05.985Z,42.71
2023-05-22T12:48:05.259Z,43.13
2023-05-22T12:49:05.690Z,43.70
2023-05-22T12:50:05.163Z,43.68
2023-05-22T12:51:05.226Z,43.68
2023-05-22T12:52:05.092Z,43.55
2023-05-22T12:53:05.148Z,43.01